createdAt,value
2022-09-23T00:01:46.414Z,6.97
2022-09-23T00:04:13.006Z,7.33
2022-09-23T00:06:39.641Z,4.43
2022-09-23T00:09:06.220Z,3.73
2022-09-23T00:11:32.869Z,5.60
2022-09-23T00:13:59.835Z,11.43
2022-09-23T00:16:32.532Z,6.73
2022-09-23T00:18:59.768Z,8.23
2022-09-23T00:21:26.615Z,12.50
2022-09-23T00:23:53.168Z,7.50
2022-09-23T00:26:20.765Z,5.67
2022-09-23T00:28:47.764Z,4.90
2022-09-23T00:31:16.315Z,7.87
2022-09-23T00:33:43.189Z,5.07
2022-09-23T00:36:11.386Z,5.10
2022-09-23T00:38:38.605Z,4.97
2022-09-23T00:41:17.165Z,3.93
2022-09-23T00:43:59.751Z,6.30
2022-09-23T00:46:32.744Z,5.70
2022-09-23T00:49:02.717Z,8.70
2022-09-23T00:51:38.549Z,5.63
2022-09-23T00:54:05.556Z,5.47
2022-09-23T00:56:32.982Z,7.87
2022-09-23T00:59:00.422Z,7.60
2022-09-23T01:01:27.017Z,9.73
2022-09-23T01:03:54.471Z,6.20
2022-09-23T01:06:20.996Z,9.13
2022-09-23T01:08:47.864Z,7.40
2022-09-23T01:11:22.025Z,6.90
2022-09-23T01:14:13.188Z,6.30
2022-09-23T01:16:42.745Z,6.43
2022-09-23T01:19:48.739Z,5.73
2022-09-23T01:22:20.590Z,7.53
2022-09-23T01:25:02.400Z,6.27
2022-09-23T01:27:41.668Z,7.10
2022-09-23T01:30:11.274Z,8.23
2022-09-23T01:33:04.643Z,6.23
2022-09-23T01:35:40.702Z,12.17
2022-09-23T01:38:26.136Z,8.60
2022-09-23T01:40:59.536Z,11.17
2022-09-23T01:43:36.569Z,10.63
2022-09-23T01:46:07.974Z,10.77
2022-09-23T01:48:40.647Z,9.03
2022-09-23T01:51:28.113Z,9.40
2022-09-23T01:54:15.721Z,7.77
2022-09-23T01:56:46.192Z,10.60
2022-09-23T01:59:16.883Z,11.97
2022-09-23T02:02:09.748Z,11.67
2022-09-23T02:04:48.071Z,19.83
2022-09-23T02:07:20.313Z,10.90
2022-09-23T02:09:50.254Z,16.03
2022-09-23T02:12:18.835Z,8.37
2022-09-23T02:14:48.372Z,8.20
2022-09-23T02:17:17.701Z,12.87
2022-09-23T02:19:57.183Z,10.83
2022-09-23T02:22:29.869Z,10.00
2022-09-23T02:24:57.440Z,12.93
2022-09-23T02:27:25.997Z,15.00
2022-09-23T02:29:55.539Z,8.83
2022-09-23T02:32:32.003Z,18.13
2022-09-23T02:35:07.536Z,9.73
2022-09-23T02:37:48.221Z,10.43
2022-09-23T02:40:23.686Z,15.50
2022-09-23T02:42:59.349Z,12.97
2022-09-23T02:45:25.948Z,11.23
2022-09-23T02:47:55.161Z,20.70
2022-09-23T02:50:22.378Z,12.47
2022-09-23T02:52:49.356Z,11.13
2022-09-23T02:55:16.948Z,12.90
2022-09-23T02:57:43.745Z,11.50
2022-09-23T03:00:10.671Z,22.23
2022-09-23T03:02:49.225Z,11.63
2022-09-23T03:05:24.758Z,12.90
2022-09-23T03:07:51.202Z,13.10
2022-09-23T03:10:22.092Z,9.50
2022-09-23T03:13:11.147Z,11.30
2022-09-23T03:15:41.966Z,10.27
2022-09-23T03:18:31.702Z,11.80
2022-09-23T03:21:03.111Z,13.30
2022-09-23T03:23:33.826Z,9.27
2022-09-23T03:26:01.758Z,9.93
2022-09-23T03:28:28.729Z,23.13
2022-09-23T03:30:56.130Z,15.23
2022-09-23T03:33:28.473Z,18.20
2022-09-23T03:36:20.163Z,11.60
2022-09-23T03:38:52.293Z,18.53
2022-09-23T03:41:23.347Z,11.73
2022-09-23T03:43:51.067Z,12.20
2022-09-23T03:46:18.583Z,14.90
2022-09-23T03:48:45.890Z,12.20
2022-09-23T03:51:23.939Z,16.07
2022-09-23T03:53:50.882Z,11.00
2022-09-23T03:56:17.590Z,11.50
2022-09-23T03:58:46.389Z,11.57
2022-09-23T04:01:14.744Z,23.53
2022-09-23T04:03:41.716Z,14.73
2022-09-23T04:06:08.324Z,12.77
2022-09-23T04:08:34.901Z,12.33
2022-09-23T04:11:02.332Z,14.13
2022-09-23T04:13:29.580Z,17.63
2022-09-23T04:15:56.147Z,24.00
2022-09-23T04:18:23.286Z,16.17
2022-09-23T04:20:50.182Z,16.73
2022-09-23T04:23:16.721Z,19.83
2022-09-23T04:25:47.163Z,13.67
2022-09-23T04:28:13.750Z,14.17
2022-09-23T04:30:42.305Z,12.90
2022-09-23T04:33:09.121Z,15.83
2022-09-23T04:35:40.046Z,19.43
2022-09-23T04:38:07.142Z,15.63
2022-09-23T04:40:34.272Z,9.37
2022-09-23T04:43:00.822Z,12.33
2022-09-23T04:45:27.374Z,17.47
2022-09-23T04:47:54.326Z,12.80
2022-09-23T04:50:20.989Z,14.30
2022-09-23T04:52:47.518Z,18.93
2022-09-23T04:55:14.086Z,16.53
2022-09-23T04:57:40.774Z,17.30
2022-09-23T05:00:07.744Z,13.57
2022-09-23T05:02:35.734Z,17.93
2022-09-23T05:05:02.292Z,18.17
2022-09-23T05:07:28.829Z,11.47
2022-09-23T05:09:55.365Z,11.90
2022-09-23T05:12:21.842Z,9.77
2022-09-23T05:14:48.433Z,25.43
2022-09-23T05:17:15.506Z,15.30
2022-09-23T05:19:42.453Z,16.97
2022-09-23T05:22:09.010Z,19.33
2022-09-23T05:24:35.538Z,13.43
2022-09-23T05:27:02.112Z,15.63
2022-09-23T05:29:29.281Z,15.17
2022-09-23T05:31:55.826Z,20.50
2022-09-23T05:34:23.172Z,10.90
2022-09-23T05:36:49.630Z,12.10
2022-09-23T05:39:16.210Z,12.43
2022-09-23T05:41:43.528Z,20.40
2022-09-23T05:44:10.050Z,11.40
2022-09-23T05:46:36.659Z,15.40
2022-09-23T05:49:05.393Z,20.27
2022-09-23T05:51:32.814Z,8.67
2022-09-23T05:54:00.044Z,8.10
2022-09-23T05:56:27.471Z,10.73
2022-09-23T05:58:54.807Z,11.97
2022-09-23T06:01:24.824Z,13.70
2022-09-23T06:03:51.950Z,10.00
2022-09-23T06:06:19.809Z,9.67
2022-09-23T06:08:47.151Z,13.37
2022-09-23T06:11:14.263Z,13.10
2022-09-23T06:13:41.259Z,11.17
2022-09-23T06:16:09.327Z,7.63
2022-09-23T06:18:38.188Z,11.27
2022-09-23T06:21:04.997Z,10.73
2022-09-23T06:23:31.844Z,10.27
2022-09-23T06:26:02.272Z,7.23
2022-09-23T06:28:32.976Z,7.47
2022-09-23T06:31:00.402Z,6.17
2022-09-23T06:33:36.242Z,5.97
2022-09-23T06:36:05.214Z,7.90
2022-09-23T06:38:33.590Z,4.57
2022-09-23T06:41:01.427Z,5.90
2022-09-23T06:43:27.900Z,8.10
2022-09-23T06:46:00.738Z,9.30
2022-09-23T06:48:28.129Z,6.20
2022-09-23T06:50:58.030Z,16.00
2022-09-23T06:53:24.531Z,7.63
2022-09-23T06:56:02.517Z,8.13
2022-09-23T06:58:29.956Z,8.67
2022-09-23T07:01:00.559Z,6.07
2022-09-23T07:03:27.105Z,7.17
2022-09-23T07:05:56.718Z,7.57
2022-09-23T07:08:23.851Z,9.87
2022-09-23T07:10:53.978Z,8.33
2022-09-23T07:13:20.505Z,8.40
2022-09-23T07:15:50.799Z,5.37
2022-09-23T07:18:18.235Z,11.90
2022-09-23T07:20:46.414Z,6.07
2022-09-23T07:23:13.125Z,10.90
2022-09-23T07:25:40.025Z,9.13
2022-09-23T07:28:07.039Z,8.60
2022-09-23T07:30:36.807Z,7.77
2022-09-23T07:33:08.435Z,15.90
2022-09-23T07:35:40.861Z,10.70
2022-09-23T07:38:07.796Z,6.30
2022-09-23T07:40:34.833Z,12.20
2022-09-23T07:43:02.227Z,7.20
2022-09-23T07:45:28.744Z,13.83
2022-09-23T07:47:55.307Z,8.50
2022-09-23T07:50:22.544Z,7.90
2022-09-23T07:52:52.928Z,5.37
2022-09-23T07:55:21.139Z,6.00
2022-09-23T07:57:47.720Z,5.53
2022-09-23T08:00:14.282Z,7.53
2022-09-23T08:02:41.860Z,6.30
2022-09-23T08:05:09.140Z,7.93
2022-09-23T08:07:35.673Z,14.80
2022-09-23T08:10:02.430Z,7.73
2022-09-23T08:12:29.447Z,9.73
2022-09-23T08:14:56.463Z,11.17
2022-09-23T08:17:23.017Z,9.60
2022-09-23T08:19:49.628Z,5.37
2022-09-23T08:22:16.424Z,8.23
2022-09-23T08:24:42.992Z,9.30
2022-09-23T08:27:10.815Z,5.73
2022-09-23T08:29:37.396Z,6.50
2022-09-23T08:32:04.010Z,8.20
2022-09-23T08:34:30.507Z,7.63
2022-09-23T08:36:57.078Z,8.00
2022-09-23T08:39:23.620Z,11.93
2022-09-23T08:41:58.413Z,5.47
2022-09-23T08:44:34.836Z,11.30
2022-09-23T08:47:11.754Z,8.07
2022-09-23T08:49:53.884Z,5.17
2022-09-23T08:52:24.056Z,5.17
2022-09-23T08:54:55.113Z,11.20
2022-09-23T08:57:30.212Z,11.80
2022-09-23T08:59:57.023Z,11.83
2022-09-23T09:02:23.593Z,8.33
2022-09-23T09:04:55.005Z,6.77
2022-09-23T09:07:36.384Z,4.60
2022-09-23T09:10:16.638Z,8.53
2022-09-23T09:12:46.207Z,5.37
2022-09-23T09:15:20.326Z,6.00
2022-09-23T09:17:51.004Z,6.43
2022-09-23T09:20:24.862Z,7.67
2022-09-23T09:22:57.692Z,4.70
2022-09-23T09:25:33.496Z,8.93
2022-09-23T09:28:01.235Z,6.93
2022-09-23T09:30:28.025Z,5.93
2022-09-23T09:32:59.890Z,5.73
2022-09-23T09:35:33.125Z,9.63
2022-09-23T09:37:59.751Z,4.17
2022-09-23T09:40:26.350Z,7.77
2022-09-23T09:42:52.971Z,6.33
2022-09-23T09:45:38.561Z,5.67
2022-09-23T09:48:17.743Z,6.20
2022-09-23T09:50:44.198Z,10.37
2022-09-23T09:53:21.870Z,3.87
2022-09-23T09:56:04.685Z,6.80
2022-09-23T09:58:41.043Z,11.43
2022-09-23T10:01:08.154Z,5.27
2022-09-23T10:03:39.397Z,5.53
2022-09-23T10:06:13.689Z,4.90
2022-09-23T10:08:40.259Z,9.70
2022-09-23T10:11:08.062Z,4.60
2022-09-23T10:13:35.061Z,4.00
2022-09-23T10:16:03.787Z,4.10
2022-09-23T10:18:32.365Z,2.17
2022-09-23T10:21:06.502Z,4.93
2022-09-23T10:23:33.388Z,6.70
2022-09-23T10:26:01.751Z,2.70
2022-09-23T10:28:47.205Z,4.13
2022-09-23T10:31:15.771Z,4.90
2022-09-23T10:33:54.662Z,5.97
2022-09-23T10:36:21.377Z,3.17
2022-09-23T10:38:49.488Z,4.10
2022-09-23T10:41:44.002Z,7.23
2022-09-23T10:44:39.669Z,7.00
2022-09-23T10:47:15.421Z,6.30
2022-09-23T10:49:54.378Z,9.47
2022-09-23T10:52:39.770Z,6.73
2022-09-23T10:55:06.301Z,9.57
2022-09-23T10:57:41.917Z,6.63
2022-09-23T11:00:08.541Z,9.80
2022-09-23T11:02:55.956Z,8.27
2022-09-23T11:05:41.396Z,6.83
2022-09-23T11:08:07.938Z,4.63
2022-09-23T11:10:48.497Z,4.77
2022-09-23T11:13:23.330Z,11.93
2022-09-23T11:15:52.890Z,9.00
2022-09-23T11:18:39.651Z,4.67
2022-09-23T11:21:21.341Z,6.47
2022-09-23T11:23:54.310Z,2.70
2022-09-23T11:26:20.817Z,6.70
2022-09-23T11:29:06.286Z,10.73
2022-09-23T11:31:59.394Z,5.13
2022-09-23T11:34:34.965Z,4.53
2022-09-23T11:37:05.272Z,5.73
2022-09-23T11:39:41.813Z,2.43
2022-09-23T11:42:13.161Z,6.00
2022-09-23T11:44:45.085Z,2.20
2022-09-23T11:47:16.465Z,2.40
2022-09-23T11:50:04.822Z,3.60
2022-09-23T11:52:34.444Z,6.60
2022-09-23T11:55:04.067Z,7.13
2022-09-23T11:57:46.904Z,2.70
2022-09-23T12:00:19.087Z,3.17
2022-09-23T12:02:54.771Z,8.63
2022-09-23T12:05:30.351Z,3.10
2022-09-23T12:08:14.885Z,1.43
2022-09-23T12:10:41.965Z,7.10
2022-09-23T12:13:19.155Z,2.40
2022-09-23T12:16:03.467Z,2.53
2022-09-23T12:18:37.100Z,3.63
2022-09-23T12:21:45.730Z,2.00
2022-09-23T12:24:26.153Z,2.53
2022-09-23T12:26:55.314Z,5.30
2022-09-23T12:29:24.305Z,6.90
2022-09-23T12:31:50.904Z,2.90
2022-09-23T12:34:48.774Z,3.47
2022-09-23T12:37:42.100Z,13.77
2022-09-23T12:40:14.500Z,4.20
2022-09-23T12:42:44.101Z,3.23
2022-09-23T12:45:19.276Z,2.70
2022-09-23T12:47:45.829Z,7.13
2022-09-23T12:50:31.036Z,5.17
2022-09-23T12:52:57.590Z,3.00
2022-09-23T12:55:24.089Z,7.20
2022-09-23T12:57:50.704Z,4.53
2022-09-23T13:00:20.257Z,6.70
2022-09-23T13:02:46.748Z,6.53
2022-09-23T13:05:35.129Z,3.10
2022-09-23T13:08:05.326Z,9.30
2022-09-23T13:10:43.115Z,6.13
2022-09-23T13:13:18.065Z,13.57
2022-09-23T13:15:44.850Z,11.63
2022-09-23T13:18:20.724Z,3.87
2022-09-23T13:20:48.439Z,11.27
2022-09-23T13:23:24.205Z,4.60
2022-09-23T13:25:51.954Z,3.80
2022-09-23T13:28:23.196Z,21.17
2022-09-23T13:30:52.056Z,6.87
2022-09-23T13:33:24.095Z,10.20
2022-09-23T13:35:52.508Z,3.00
2022-09-23T13:38:25.681Z,5.40
2022-09-23T13:41:07.907Z,6.03
2022-09-23T13:43:40.911Z,6.10
2022-09-23T13:46:17.338Z,9.07
2022-09-23T13:48:45.318Z,3.40
2022-09-23T13:51:15.971Z,7.13
2022-09-23T13:53:42.537Z,4.90
2022-09-23T13:56:13.615Z,5.63
2022-09-23T13:58:40.554Z,2.70
2022-09-23T14:01:21.223Z,3.13
2022-09-23T14:03:47.830Z,7.03
2022-09-23T14:06:16.012Z,6.30
2022-09-23T14:08:47.376Z,3.00
2022-09-23T14:11:15.508Z,8.90
2022-09-23T14:13:43.070Z,7.23
2022-09-23T14:16:15.079Z,5.67
2022-09-23T14:18:46.427Z,4.23
2022-09-23T14:21:34.667Z,3.83
2022-09-23T14:24:19.087Z,3.23
2022-09-23T14:26:47.415Z,10.10
2022-09-23T14:29:16.518Z,4.40
2022-09-23T14:31:56.891Z,11.23
2022-09-23T14:34:42.674Z,8.23
2022-09-23T14:37:37.313Z,7.13
2022-09-23T14:40:05.875Z,9.70
2022-09-23T14:42:38.370Z,6.00
2022-09-23T14:45:05.724Z,16.67
2022-09-23T14:47:33.663Z,3.03
2022-09-23T14:50:26.787Z,13.53
2022-09-23T14:52:53.425Z,12.50
2022-09-23T14:55:20.163Z,3.50
2022-09-23T14:57:47.454Z,2.50
2022-09-23T15:00:18.432Z,3.70
2022-09-23T15:02:56.764Z,3.17
2022-09-23T15:05:30.940Z,5.27
2022-09-23T15:08:00.138Z,9.93
2022-09-23T15:10:31.144Z,8.37
2022-09-23T15:13:06.986Z,13.73
2022-09-23T15:15:33.782Z,9.13
2022-09-23T15:18:08.351Z,18.57
2022-09-23T15:20:35.602Z,18.43
2022-09-23T15:23:02.407Z,5.73
2022-09-23T15:25:32.332Z,7.30
2022-09-23T15:28:03.347Z,6.40
2022-09-23T15:30:31.634Z,4.20
2022-09-23T15:32:58.625Z,4.13
2022-09-23T15:35:26.757Z,7.30
2022-09-23T15:37:55.786Z,2.87
2022-09-23T15:40:22.800Z,5.93
2022-09-23T15:42:52.977Z,5.60
2022-09-23T15:45:22.281Z,16.17
2022-09-23T15:47:49.826Z,6.40
2022-09-23T15:50:17.466Z,29.93
2022-09-23T15:52:47.013Z,6.73
2022-09-23T15:55:14.884Z,5.57
2022-09-23T15:57:41.625Z,8.73
2022-09-23T16:00:10.555Z,18.70
2022-09-23T16:02:39.628Z,6.30
2022-09-23T16:05:06.388Z,6.73
2022-09-23T16:07:33.980Z,7.93
2022-09-23T16:10:00.640Z,7.90
2022-09-23T16:12:27.890Z,10.10
2022-09-23T16:14:55.223Z,11.13
2022-09-23T16:17:22.121Z,13.93
2022-09-23T16:19:48.762Z,8.20
2022-09-23T16:22:16.054Z,12.33
2022-09-23T16:24:42.768Z,13.27
2022-09-23T16:27:11.909Z,13.37
2022-09-23T16:29:38.731Z,11.00
2022-09-23T16:32:05.598Z,14.10
2022-09-23T16:34:34.719Z,8.60
2022-09-23T16:37:01.437Z,6.17
2022-09-23T16:39:28.059Z,9.93
2022-09-23T16:41:54.748Z,8.63
2022-09-23T16:44:21.483Z,10.23
2022-09-23T16:46:48.423Z,7.17
2022-09-23T16:49:15.092Z,16.10
2022-09-23T16:51:41.916Z,8.53
2022-09-23T16:54:12.634Z,9.43
2022-09-23T16:56:45.326Z,9.50
2022-09-23T16:59:15.979Z,12.33
2022-09-23T17:02:01.373Z,11.40
2022-09-23T17:04:28.103Z,9.57
2022-09-23T17:06:54.952Z,12.53
2022-09-23T17:09:22.685Z,9.53
2022-09-23T17:11:52.985Z,14.40
2022-09-23T17:14:19.650Z,11.13
2022-09-23T17:16:46.364Z,9.17
2022-09-23T17:19:13.045Z,13.53
2022-09-23T17:21:40.021Z,11.97
2022-09-23T17:24:08.131Z,14.20
2022-09-23T17:26:34.935Z,19.27
2022-09-23T17:29:02.111Z,15.70
2022-09-23T17:31:28.960Z,15.00
2022-09-23T17:33:55.603Z,12.83
2022-09-23T17:36:22.399Z,23.47
2022-09-23T17:38:49.454Z,32.23
2022-09-23T17:41:17.285Z,16.90
2022-09-23T17:43:44.768Z,28.23
2022-09-23T17:46:12.774Z,14.90
2022-09-23T17:48:41.398Z,13.27
2022-09-23T17:51:10.331Z,11.13
2022-09-23T17:53:38.471Z,9.83
2022-09-23T17:56:06.410Z,11.83
2022-09-23T17:58:34.561Z,10.87
2022-09-23T18:01:02.769Z,14.67
2022-09-23T18:03:30.484Z,18.17
2022-09-23T18:06:15.478Z,21.90
2022-09-23T18:08:43.190Z,13.60
2022-09-23T18:11:22.507Z,24.70
2022-09-23T18:13:49.154Z,13.80
2022-09-23T18:16:16.321Z,19.03
2022-09-23T18:18:43.273Z,11.23
2022-09-23T18:21:10.449Z,18.93
2022-09-23T18:23:37.346Z,13.07
2022-09-23T18:26:04.372Z,14.70
2022-09-23T18:28:34.677Z,26.07
2022-09-23T18:31:01.885Z,31.27
2022-09-23T18:33:28.624Z,18.83
2022-09-23T18:35:55.939Z,16.33
2022-09-23T18:38:22.694Z,18.40
2022-09-23T18:40:54.278Z,15.77
2022-09-23T18:43:24.584Z,20.87
2022-09-23T18:45:58.428Z,16.30
2022-09-23T18:48:44.567Z,8.23
2022-09-23T18:51:11.660Z,21.43
2022-09-23T18:53:38.602Z,15.03
2022-09-23T18:56:09.551Z,11.70
2022-09-23T18:58:36.575Z,13.53
2022-09-23T19:01:07.385Z,13.53
2022-09-23T19:03:34.368Z,9.70
2022-09-23T19:06:08.463Z,17.43
2022-09-23T19:08:35.754Z,14.70
2022-09-23T19:11:03.858Z,17.60
2022-09-23T19:13:31.191Z,17.23
2022-09-23T19:16:09.909Z,17.83
2022-09-23T19:18:38.502Z,22.73
2022-09-23T19:21:07.157Z,13.77
2022-09-23T19:23:37.503Z,14.10
2022-09-23T19:26:11.974Z,16.17
2022-09-23T19:28:39.015Z,14.30
2022-09-23T19:31:14.003Z,30.37
2022-09-23T19:33:46.258Z,22.30
2022-09-23T19:36:16.419Z,19.63
2022-09-23T19:38:44.356Z,20.70
2022-09-23T19:41:11.232Z,16.67
2022-09-23T19:43:37.931Z,15.80
2022-09-23T19:46:06.765Z,15.10
2022-09-23T19:48:34.313Z,20.70
2022-09-23T19:51:02.625Z,22.80
2022-09-23T19:53:29.262Z,24.57
2022-09-23T19:55:56.284Z,13.13
2022-09-23T19:58:23.391Z,20.53
2022-09-23T20:00:49.889Z,18.27
2022-09-23T20:03:17.610Z,21.10
2022-09-23T20:05:44.244Z,17.23
2022-09-23T20:08:10.981Z,16.83
2022-09-23T20:10:40.728Z,12.53
2022-09-23T20:13:07.551Z,13.30
2022-09-23T20:15:34.157Z,22.13
2022-09-23T20:18:00.778Z,20.37
2022-09-23T20:20:27.388Z,18.40
2022-09-23T20:22:55.121Z,18.80
2022-09-23T20:25:21.702Z,20.13
2022-09-23T20:27:49.480Z,17.37
2022-09-23T20:30:16.245Z,15.97
2022-09-23T20:32:44.877Z,15.77
2022-09-23T20:35:11.679Z,19.13
2022-09-23T20:37:38.349Z,18.20
2022-09-23T20:40:05.218Z,19.07
2022-09-23T20:42:32.240Z,22.03
2022-09-23T20:44:58.810Z,18.43
2022-09-23T20:47:25.369Z,20.87
2022-09-23T20:49:53.439Z,22.23
2022-09-23T20:52:21.460Z,16.30
2022-09-23T20:54:51.532Z,18.80
2022-09-23T20:57:18.913Z,21.40
2022-09-23T20:59:45.523Z,19.60
2022-09-23T21:02:12.154Z,19.53
2022-09-23T21:04:38.748Z,16.73
2022-09-23T21:07:05.449Z,19.30
2022-09-23T21:09:32.025Z,17.50
2022-09-23T21:11:58.946Z,28.50
2022-09-23T21:14:25.811Z,18.23
2022-09-23T21:16:53.094Z,21.90
2022-09-23T21:19:19.724Z,26.93
2022-09-23T21:21:46.387Z,19.50
2022-09-23T21:24:40.122Z,20.77
2022-09-23T21:26:59.908Z,21.17
2022-09-23T21:29:26.458Z,16.13
2022-09-23T21:31:53.076Z,23.80
2022-09-23T21:34:19.853Z,15.63
2022-09-23T21:36:47.979Z,21.40
2022-09-23T21:39:14.783Z,21.97
2022-09-23T21:41:41.351Z,25.20
2022-09-23T21:44:08.508Z,22.17
2022-09-23T21:46:35.953Z,19.73
2022-09-23T21:49:03.900Z,20.00
2022-09-23T21:51:36.358Z,23.57
2022-09-23T21:54:02.922Z,28.73
2022-09-23T21:56:30.483Z,31.17
2022-09-23T21:58:58.264Z,24.77
2022-09-23T22:01:29.383Z,28.10
2022-09-23T22:04:01.690Z,29.53
2022-09-23T22:06:28.440Z,21.70
2022-09-23T22:08:58.922Z,31.27
2022-09-23T22:11:44.599Z,23.00
2022-09-23T22:14:12.429Z,20.93
2022-09-23T22:16:39.394Z,30.70
2022-09-23T22:19:09.140Z,22.37
2022-09-23T22:21:37.230Z,22.10
2022-09-23T22:24:04.693Z,26.03
2022-09-23T22:26:32.599Z,23.60
2022-09-23T22:29:17.798Z,27.77
2022-09-23T22:32:03.120Z,27.97
2022-09-23T22:34:49.144Z,27.23
2022-09-23T22:37:20.183Z,32.00
2022-09-23T22:39:46.782Z,24.37
2022-09-23T22:42:13.410Z,30.53
2022-09-23T22:44:39.959Z,32.00
2022-09-23T22:47:06.599Z,28.47
2022-09-23T22:49:33.430Z,28.40
2022-09-23T22:52:00.005Z,30.33
2022-09-23T22:54:33.712Z,32.83
2022-09-23T22:57:03.722Z,29.03
2022-09-23T22:59:30.237Z,38.80
2022-09-23T23:01:57.185Z,33.37
2022-09-23T23:04:23.853Z,31.97
2022-09-23T23:06:50.904Z,34.30
2022-09-23T23:09:18.331Z,32.60
2022-09-23T23:11:45.215Z,35.93
2022-09-23T23:14:12.761Z,26.53
2022-09-23T23:16:39.418Z,36.73
2022-09-23T23:19:09.646Z,39.30
2022-09-23T23:21:36.876Z,29.23
2022-09-23T23:24:04.482Z,35.20
2022-09-23T23:26:32.158Z,31.50
2022-09-23T23:28:59.186Z,33.20
2022-09-23T23:31:26.946Z,25.40
2022-09-23T23:33:54.130Z,24.53
2022-09-23T23:36:21.542Z,24.83
2022-09-23T23:38:48.664Z,30.90
2022-09-23T23:41:16.548Z,26.40
2022-09-23T23:43:44.416Z,30.57
2022-09-23T23:46:11.964Z,31.17
2022-09-23T23:48:39.289Z,27.33
2022-09-23T23:51:07.253Z,25.87
2022-09-23T23:53:35.077Z,29.53
2022-09-23T23:56:06.434Z,26.40
2022-09-23T23:58:33.090Z,35.43
